sensor_id;sensor_type;location;lat;lon;timestamp;P1;durP1;ratioP1;P2;durP2;ratioP2
12048;SDS011;6085;49.452;8.502;2023-05-07T00:03:59;2.58;;;2.40;;
12048;SDS011;6085;49.452;8.502;2023-05-07T00:08:03;2.47;;;2.28;;
12048;SDS011;6085;49.452;8.502;2023-05-07T00:12:06;2.60;;;2.40;;
12048;SDS011;6085;49.452;8.502;2023-05-07T00:16:08;2.88;;;2.50;;
12048;SDS011;6085;49.452;8.502;2023-05-07T00:20:10;2.83;;;2.63;;
12048;SDS011;6085;49.452;8.502;2023-05-07T00:24:14;2.92;;;2.65;;
12048;SDS011;6085;49.452;8.502;2023-05-07T00:28:17;2.47;;;2.28;;
12048;SDS011;6085;49.452;8.502;2023-05-07T00:32:19;2.92;;;2.50;;
12048;SDS011;6085;49.452;8.502;2023-05-07T00:36:21;2.85;;;2.22;;
12048;SDS011;6085;49.452;8.502;2023-05-07T00:40:24;2.60;;;2.40;;
12048;SDS011;6085;49.452;8.502;2023-05-07T00:44:26;2.88;;;2.67;;
12048;SDS011;6085;49.452;8.502;2023-05-07T00:48:29;2.95;;;2.50;;
12048;SDS011;6085;49.452;8.502;2023-05-07T00:52:31;2.25;;;2.13;;
12048;SDS011;6085;49.452;8.502;2023-05-07T00:56:35;2.35;;;2.15;;
12048;SDS011;6085;49.452;8.502;2023-05-07T01:00:39;3.53;;;2.67;;
12048;SDS011;6085;49.452;8.502;2023-05-07T01:04:41;2.53;;;2.33;;
12048;SDS011;6085;49.452;8.502;2023-05-07T01:08:43;2.65;;;2.20;;
12048;SDS011;6085;49.452;8.502;2023-05-07T01:12:47;2.80;;;2.50;;
12048;SDS011;6085;49.452;8.502;2023-05-07T01:16:51;2.50;;;2.30;;
12048;SDS011;6085;49.452;8.502;2023-05-07T01:20:53;2.58;;;2.38;;
12048;SDS011;6085;49.452;8.502;2023-05-07T01:24:58;2.53;;;2.33;;
12048;SDS011;6085;49.452;8.502;2023-05-07T01:29:01;2.95;;;2.75;;
12048;SDS011;6085;49.452;8.502;2023-05-07T01:33:04;3.05;;;2.80;;
12048;SDS011;6085;49.452;8.502;2023-05-07T01:37:10;2.90;;;2.70;;
12048;SDS011;6085;49.452;8.502;2023-05-07T01:41:13;2.30;;;2.20;;
12048;SDS011;6085;49.452;8.502;2023-05-07T01:45:15;2.72;;;2.47;;
12048;SDS011;6085;49.452;8.502;2023-05-07T01:49:17;2.60;;;2.40;;
12048;SDS011;6085;49.452;8.502;2023-05-07T01:53:19;2.60;;;2.40;;
12048;SDS011;6085;49.452;8.502;2023-05-07T01:57:23;2.85;;;2.33;;
12048;SDS011;6085;49.452;8.502;2023-05-07T02:01:25;2.65;;;2.45;;
12048;SDS011;6085;49.452;8.502;2023-05-07T02:05:27;2.40;;;2.20;;
12048;SDS011;6085;49.452;8.502;2023-05-07T02:09:29;2.63;;;2.42;;
12048;SDS011;6085;49.452;8.502;2023-05-07T02:13:33;2.78;;;2.58;;
12048;SDS011;6085;49.452;8.502;2023-05-07T02:17:38;2.42;;;2.22;;
12048;SDS011;6085;49.452;8.502;2023-05-07T02:21:59;2.92;;;2.60;;
12048;SDS011;6085;49.452;8.502;2023-05-07T02:26:01;2.78;;;2.58;;
12048;SDS011;6085;49.452;8.502;2023-05-07T02:30:04;2.60;;;2.40;;
12048;SDS011;6085;49.452;8.502;2023-05-07T02:34:07;2.30;;;2.10;;
12048;SDS011;6085;49.452;8.502;2023-05-07T02:38:09;2.63;;;2.42;;
12048;SDS011;6085;49.452;8.502;2023-05-07T02:42:11;2.60;;;2.40;;
12048;SDS011;6085;49.452;8.502;2023-05-07T02:46:14;2.88;;;2.67;;
12048;SDS011;6085;49.452;8.502;2023-05-07T02:50:16;2.85;;;2.55;;
12048;SDS011;6085;49.452;8.502;2023-05-07T02:54:18;2.95;;;2.75;;
12048;SDS011;6085;49.452;8.502;2023-05-07T02:58:20;2.88;;;2.60;;
12048;SDS011;6085;49.452;8.502;2023-05-07T03:02:23;2.90;;;2.70;;
12048;SDS011;6085;49.452;8.502;2023-05-07T03:06:25;4.75;;;2.53;;
12048;SDS011;6085;49.452;8.502;2023-05-07T03:10:27;2.47;;;2.22;;
12048;SDS011;6085;49.452;8.502;2023-05-07T03:14:29;2.60;;;2.40;;
12048;SDS011;6085;49.452;8.502;2023-05-07T03:18:33;2.88;;;2.67;;
12048;SDS011;6085;49.452;8.502;2023-05-07T03:22:34;3.17;;;2.88;;
12048;SDS011;6085;49.452;8.502;2023-05-07T03:26:37;3.60;;;3.30;;
12048;SDS011;6085;49.452;8.502;2023-05-07T03:30:38;3.05;;;2.85;;
12048;SDS011;6085;49.452;8.502;2023-05-07T03:34:42;3.20;;;2.90;;
12048;SDS011;6085;49.452;8.502;2023-05-07T03:38:44;3.88;;;3.22;;
12048;SDS011;6085;49.452;8.502;2023-05-07T03:42:46;3.42;;;3.13;;
12048;SDS011;6085;49.452;8.502;2023-05-07T03:46:48;3.17;;;2.83;;
12048;SDS011;6085;49.452;8.502;2023-05-07T03:50:52;3.05;;;2.75;;
12048;SDS011;6085;49.452;8.502;2023-05-07T03:54:54;3.40;;;3.10;;
12048;SDS011;6085;49.452;8.502;2023-05-07T03:58:56;3.20;;;3.00;;
12048;SDS011;6085;49.452;8.502;2023-05-07T04:02:58;3.00;;;2.80;;
12048;SDS011;6085;49.452;8.502;2023-05-07T04:07:01;3.10;;;2.83;;
12048;SDS011;6085;49.452;8.502;2023-05-07T04:11:03;3.20;;;2.92;;
12048;SDS011;6085;49.452;8.502;2023-05-07T04:15:05;3.22;;;2.92;;
12048;SDS011;6085;49.452;8.502;2023-05-07T04:19:08;3.33;;;3.03;;
12048;SDS011;6085;49.452;8.502;2023-05-07T04:23:11;3.20;;;2.90;;
12048;SDS011;6085;49.452;8.502;2023-05-07T04:27:13;3.25;;;2.95;;
12048;SDS011;6085;49.452;8.502;2023-05-07T04:31:15;3.35;;;3.05;;
12048;SDS011;6085;49.452;8.502;2023-05-07T04:35:17;3.22;;;3.00;;
12048;SDS011;6085;49.452;8.502;2023-05-07T04:39:20;3.28;;;2.97;;
12048;SDS011;6085;49.452;8.502;2023-05-07T04:43:22;3.35;;;3.05;;
12048;SDS011;6085;49.452;8.502;2023-05-07T04:47:25;3.30;;;3.00;;
12048;SDS011;6085;49.452;8.502;2023-05-07T04:51:27;3.33;;;3.03;;
12048;SDS011;6085;49.452;8.502;2023-05-07T04:55:30;3.65;;;3.35;;
12048;SDS011;6085;49.452;8.502;2023-05-07T04:59:32;3.50;;;3.20;;
12048;SDS011;6085;49.452;8.502;2023-05-07T05:03:34;3.33;;;3.03;;
12048;SDS011;6085;49.452;8.502;2023-05-07T05:07:36;3.10;;;2.90;;
12048;SDS011;6085;49.452;8.502;2023-05-07T05:11:39;3.38;;;3.08;;
12048;SDS011;6085;49.452;8.502;2023-05-07T05:15:41;2.63;;;2.42;;
12048;SDS011;6085;49.452;8.502;2023-05-07T05:19:43;3.08;;;2.85;;
12048;SDS011;6085;49.452;8.502;2023-05-07T05:23:45;2.90;;;2.70;;
12048;SDS011;6085;49.452;8.502;2023-05-07T05:27:49;4.28;;;3.00;;
12048;SDS011;6085;49.452;8.502;2023-05-07T05:31:51;3.60;;;2.50;;
12048;SDS011;6085;49.452;8.502;2023-05-07T05:35:53;2.38;;;2.13;;
12048;SDS011;6085;49.452;8.502;2023-05-07T05:39:55;2.97;;;2.60;;
12048;SDS011;6085;49.452;8.502;2023-05-07T05:43:58;3.17;;;2.88;;
12048;SDS011;6085;49.452;8.502;2023-05-07T05:48:00;3.35;;;3.08;;
12048;SDS011;6085;49.452;8.502;2023-05-07T05:52:02;4.07;;;3.22;;
12048;SDS011;6085;49.452;8.502;2023-05-07T05:56:04;3.78;;;3.33;;
12048;SDS011;6085;49.452;8.502;2023-05-07T06:00:09;3.30;;;2.92;;
12048;SDS011;6085;49.452;8.502;2023-05-07T06:04:12;3.47;;;3.10;;
12048;SDS011;6085;49.452;8.502;2023-05-07T06:08:14;3.65;;;3.28;;
12048;SDS011;6085;49.452;8.502;2023-05-07T06:12:15;4.18;;;3.70;;
12048;SDS011;6085;49.452;8.502;2023-05-07T06:16:19;4.13;;;3.83;;
12048;SDS011;6085;49.452;8.502;2023-05-07T06:20:21;4.63;;;3.83;;
12048;SDS011;6085;49.452;8.502;2023-05-07T06:24:23;4.22;;;3.80;;
12048;SDS011;6085;49.452;8.502;2023-05-07T06:28:25;3.60;;;3.25;;
12048;SDS011;6085;49.452;8.502;2023-05-07T06:32:29;4.07;;;3.20;;
12048;SDS011;6085;49.452;8.502;2023-05-07T06:36:31;3.80;;;3.20;;
12048;SDS011;6085;49.452;8.502;2023-05-07T06:40:33;3.80;;;3.40;;
12048;SDS011;6085;49.452;8.502;2023-05-07T06:44:35;4.00;;;3.60;;
12048;SDS011;6085;49.452;8.502;2023-05-07T06:48:38;3.85;;;2.80;;
12048;SDS011;6085;49.452;8.502;2023-05-07T06:52:40;3.05;;;2.83;;
12048;SDS011;6085;49.452;8.502;2023-05-07T06:56:42;3.15;;;2.83;;
12048;SDS011;6085;49.452;8.502;2023-05-07T07:00:44;2.95;;;2.72;;
12048;SDS011;6085;49.452;8.502;2023-05-07T07:04:47;3.58;;;2.40;;
12048;SDS011;6085;49.452;8.502;2023-05-07T07:08:49;2.75;;;2.55;;
12048;SDS011;6085;49.452;8.502;2023-05-07T07:12:51;3.25;;;2.60;;
12048;SDS011;6085;49.452;8.502;2023-05-07T07:16:54;2.20;;;2.10;;
12048;SDS011;6085;49.452;8.502;2023-05-07T07:20:57;3.55;;;2.25;;
12048;SDS011;6085;49.452;8.502;2023-05-07T07:25:00;2.55;;;2.03;;
12048;SDS011;6085;49.452;8.502;2023-05-07T07:29:02;2.88;;;2.20;;
12048;SDS011;6085;49.452;8.502;2023-05-07T07:33:04;1.92;;;1.80;;
12048;SDS011;6085;49.452;8.502;2023-05-07T07:37:07;3.15;;;2.15;;
12048;SDS011;6085;49.452;8.502;2023-05-07T07:41:09;2.50;;;2.03;;
12048;SDS011;6085;49.452;8.502;2023-05-07T07:45:11;2.53;;;1.80;;
12048;SDS011;6085;49.452;8.502;2023-05-07T07:49:13;2.28;;;2.10;;
12048;SDS011;6085;49.452;8.502;2023-05-07T07:53:17;2.30;;;2.08;;
12048;SDS011;6085;49.452;8.502;2023-05-07T07:57:19;3.78;;;1.92;;
12048;SDS011;6085;49.452;8.502;2023-05-07T08:01:21;2.40;;;2.20;;
12048;SDS011;6085;49.452;8.502;2023-05-07T08:05:23;2.42;;;2.00;;
12048;SDS011;6085;49.452;8.502;2023-05-07T08:09:27;2.08;;;1.95;;
12048;SDS011;6085;49.452;8.502;2023-05-07T08:13:29;2.00;;;1.90;;
12048;SDS011;6085;49.452;8.502;2023-05-07T08:17:31;3.00;;;1.55;;
12048;SDS011;6085;49.452;8.502;2023-05-07T08:21:33;2.63;;;1.92;;
12048;SDS011;6085;49.452;8.502;2023-05-07T08:25:37;2.83;;;2.63;;
12048;SDS011;6085;49.452;8.502;2023-05-07T08:29:39;2.45;;;2.25;;
12048;SDS011;6085;49.452;8.502;2023-05-07T08:33:41;3.22;;;2.13;;
12048;SDS011;6085;49.452;8.502;2023-05-07T08:37:43;2.17;;;2.08;;
12048;SDS011;6085;49.452;8.502;2023-05-07T08:41:46;3.30;;;2.55;;
12048;SDS011;6085;49.452;8.502;2023-05-07T08:45:53;3.92;;;2.65;;
12048;SDS011;6085;49.452;8.502;2023-05-07T08:49:56;2.42;;;2.22;;
12048;SDS011;6085;49.452;8.502;2023-05-07T08:53:57;3.00;;;2.60;;
12048;SDS011;6085;49.452;8.502;2023-05-07T08:58:02;3.25;;;2.42;;
12048;SDS011;6085;49.452;8.502;2023-05-07T09:02:05;2.38;;;2.17;;
12048;SDS011;6085;49.452;8.502;2023-05-07T09:06:10;3.63;;;2.30;;
12048;SDS011;6085;49.452;8.502;2023-05-07T09:10:12;3.67;;;2.20;;
12048;SDS011;6085;49.452;8.502;2023-05-07T09:14:16;2.28;;;1.98;;
12048;SDS011;6085;49.452;8.502;2023-05-07T09:18:19;2.38;;;2.00;;
12048;SDS011;6085;49.452;8.502;2023-05-07T09:22:21;2.70;;;1.90;;
12048;SDS011;6085;49.452;8.502;2023-05-07T09:26:23;2.53;;;1.67;;
12048;SDS011;6085;49.452;8.502;2023-05-07T09:30:28;1.70;;;1.60;;
12048;SDS011;6085;49.452;8.502;2023-05-07T09:34:31;2.25;;;1.65;;
12048;SDS011;6085;49.452;8.502;2023-05-07T09:38:33;2.15;;;1.90;;
12048;SDS011;6085;49.452;8.502;2023-05-07T09:42:35;2.40;;;1.48;;
12048;SDS011;6085;49.452;8.502;2023-05-07T09:46:38;2.00;;;1.80;;
12048;SDS011;6085;49.452;8.502;2023-05-07T09:50:45;1.80;;;1.70;;
12048;SDS011;6085;49.452;8.502;2023-05-07T09:54:51;2.75;;;1.70;;
12048;SDS011;6085;49.452;8.502;2023-05-07T09:58:55;2.90;;;1.80;;
12048;SDS011;6085;49.452;8.502;2023-05-07T10:03:00;2.33;;;2.00;;
12048;SDS011;6085;49.452;8.502;2023-05-07T10:07:04;1.85;;;1.75;;
12048;SDS011;6085;49.452;8.502;2023-05-07T10:11:06;1.95;;;1.85;;
12048;SDS011;6085;49.452;8.502;2023-05-07T10:15:08;2.10;;;1.90;;
12048;SDS011;6085;49.452;8.502;2023-05-07T10:19:13;2.38;;;1.88;;
12048;SDS011;6085;49.452;8.502;2023-05-07T10:23:17;2.10;;;1.90;;
12048;SDS011;6085;49.452;8.502;2023-05-07T10:27:23;1.60;;;1.50;;
12048;SDS011;6085;49.452;8.502;2023-05-07T10:35:58;1.88;;;1.77;;
12048;SDS011;6085;49.452;8.502;2023-05-07T10:40:04;1.90;;;1.80;;
12048;SDS011;6085;49.452;8.502;2023-05-07T10:44:08;1.70;;;1.60;;
12048;SDS011;6085;49.452;8.502;2023-05-07T10:48:10;2.15;;;1.88;;
12048;SDS011;6085;49.452;8.502;2023-05-07T10:52:16;1.77;;;1.67;;
12048;SDS011;6085;49.452;8.502;2023-05-07T10:56:25;1.67;;;1.58;;
12048;SDS011;6085;49.452;8.502;2023-05-07T11:00:43;1.50;;;1.40;;
12048;SDS011;6085;49.452;8.502;2023-05-07T11:04:45;3.13;;;1.60;;
12048;SDS011;6085;49.452;8.502;2023-05-07T11:09:24;2.90;;;1.60;;
12048;SDS011;6085;49.452;8.502;2023-05-07T11:13:41;1.77;;;1.67;;
12048;SDS011;6085;49.452;8.502;2023-05-07T11:22:04;2.47;;;1.60;;
12048;SDS011;6085;49.452;8.502;2023-05-07T11:26:31;2.35;;;1.73;;
12048;SDS011;6085;49.452;8.502;2023-05-07T11:30:43;1.25;;;1.25;;
12048;SDS011;6085;49.452;8.502;2023-05-07T11:34:46;1.58;;;1.48;;
12048;SDS011;6085;49.452;8.502;2023-05-07T11:38:52;1.67;;;1.58;;
12048;SDS011;6085;49.452;8.502;2023-05-07T11:42:55;1.42;;;1.33;;
12048;SDS011;6085;49.452;8.502;2023-05-07T11:46:57;1.27;;;1.25;;
12048;SDS011;6085;49.452;8.502;2023-05-07T11:51:00;1.55;;;1.40;;
12048;SDS011;6085;49.452;8.502;2023-05-07T11:55:03;1.48;;;1.30;;
12048;SDS011;6085;49.452;8.502;2023-05-07T11:59:07;3.22;;;1.50;;
12048;SDS011;6085;49.452;8.502;2023-05-07T12:03:09;1.13;;;1.13;;
12048;SDS011;6085;49.452;8.502;2023-05-07T12:07:11;1.40;;;1.30;;
12048;SDS011;6085;49.452;8.502;2023-05-07T12:11:14;1.05;;;1.00;;
12048;SDS011;6085;49.452;8.502;2023-05-07T12:15:23;1.50;;;1.40;;
12048;SDS011;6085;49.452;8.502;2023-05-07T12:19:25;2.45;;;1.60;;
12048;SDS011;6085;49.452;8.502;2023-05-07T12:23:27;2.75;;;1.60;;
12048;SDS011;6085;49.452;8.502;2023-05-07T12:27:30;1.27;;;1.17;;
12048;SDS011;6085;49.452;8.502;2023-05-07T12:31:33;1.75;;;1.30;;
12048;SDS011;6085;49.452;8.502;2023-05-07T12:35:37;1.50;;;1.40;;
12048;SDS011;6085;49.452;8.502;2023-05-07T12:39:44;1.50;;;1.42;;
12048;SDS011;6085;49.452;8.502;2023-05-07T12:43:56;1.77;;;1.17;;
12048;SDS011;6085;49.452;8.502;2023-05-07T12:48:02;1.52;;;1.20;;
12048;SDS011;6085;49.452;8.502;2023-05-07T12:52:04;1.45;;;1.35;;
12048;SDS011;6085;49.452;8.502;2023-05-07T12:56:06;1.30;;;1.20;;
12048;SDS011;6085;49.452;8.502;2023-05-07T13:00:09;1.48;;;1.38;;
12048;SDS011;6085;49.452;8.502;2023-05-07T13:04:13;1.50;;;1.40;;
12048;SDS011;6085;49.452;8.502;2023-05-07T13:08:23;1.40;;;1.30;;
12048;SDS011;6085;49.452;8.502;2023-05-07T13:12:29;1.60;;;1.50;;
12048;SDS011;6085;49.452;8.502;2023-05-07T13:16:31;1.40;;;1.30;;
12048;SDS011;6085;49.452;8.502;2023-05-07T13:20:34;1.55;;;1.45;;
12048;SDS011;6085;49.452;8.502;2023-05-07T13:24:36;1.50;;;1.40;;
12048;SDS011;6085;49.452;8.502;2023-05-07T13:28:41;1.80;;;1.70;;
12048;SDS011;6085;49.452;8.502;2023-05-07T13:32:43;1.60;;;1.50;;
12048;SDS011;6085;49.452;8.502;2023-05-07T13:36:49;1.80;;;1.70;;
12048;SDS011;6085;49.452;8.502;2023-05-07T13:40:51;1.60;;;1.50;;
12048;SDS011;6085;49.452;8.502;2023-05-07T13:44:53;1.65;;;1.55;;
12048;SDS011;6085;49.452;8.502;2023-05-07T13:48:55;2.08;;;1.80;;
12048;SDS011;6085;49.452;8.502;2023-05-07T13:52:59;1.95;;;1.40;;
12048;SDS011;6085;49.452;8.502;2023-05-07T13:57:00;1.75;;;1.52;;
12048;SDS011;6085;49.452;8.502;2023-05-07T14:01:03;2.95;;;1.85;;
12048;SDS011;6085;49.452;8.502;2023-05-07T14:05:05;1.80;;;1.70;;
12048;SDS011;6085;49.452;8.502;2023-05-07T14:09:09;1.77;;;1.67;;
12048;SDS011;6085;49.452;8.502;2023-05-07T14:13:13;1.95;;;1.80;;
12048;SDS011;6085;49.452;8.502;2023-05-07T14:17:15;2.25;;;1.70;;
12048;SDS011;6085;49.452;8.502;2023-05-07T14:21:17;2.00;;;1.90;;
12048;SDS011;6085;49.452;8.502;2023-05-07T14:25:20;2.15;;;1.95;;
12048;SDS011;6085;49.452;8.502;2023-05-07T14:29:22;3.30;;;1.92;;
12048;SDS011;6085;49.452;8.502;2023-05-07T14:33:24;2.97;;;2.30;;
12048;SDS011;6085;49.452;8.502;2023-05-07T14:37:26;2.22;;;2.03;;
12048;SDS011;6085;49.452;8.502;2023-05-07T14:41:32;1.80;;;1.70;;
12048;SDS011;6085;49.452;8.502;2023-05-07T14:45:34;3.58;;;2.50;;
12048;SDS011;6085;49.452;8.502;2023-05-07T14:49:40;4.50;;;2.30;;
12048;SDS011;6085;49.452;8.502;2023-05-07T14:53:42;4.80;;;3.03;;
12048;SDS011;6085;49.452;8.502;2023-05-07T14:57:45;4.88;;;3.67;;
12048;SDS011;6085;49.452;8.502;2023-05-07T15:01:47;5.22;;;4.07;;
12048;SDS011;6085;49.452;8.502;2023-05-07T15:05:50;5.00;;;3.95;;
12048;SDS011;6085;49.452;8.502;2023-05-07T15:09:53;4.70;;;4.15;;
12048;SDS011;6085;49.452;8.502;2023-05-07T15:13:56;6.63;;;3.65;;
12048;SDS011;6085;49.452;8.502;2023-05-07T15:17:58;5.00;;;4.13;;
12048;SDS011;6085;49.452;8.502;2023-05-07T15:22:00;5.82;;;3.78;;
12048;SDS011;6085;49.452;8.502;2023-05-07T15:26:03;4.20;;;3.58;;
12048;SDS011;6085;49.452;8.502;2023-05-07T15:30:09;4.07;;;3.67;;
12048;SDS011;6085;49.452;8.502;2023-05-07T15:34:12;4.30;;;3.80;;
12048;SDS011;6085;49.452;8.502;2023-05-07T15:38:15;4.28;;;3.88;;
12048;SDS011;6085;49.452;8.502;2023-05-07T15:42:17;5.00;;;4.50;;
12048;SDS011;6085;49.452;8.502;2023-05-07T15:46:21;4.25;;;3.80;;
12048;SDS011;6085;49.452;8.502;2023-05-07T15:50:24;3.13;;;2.92;;
12048;SDS011;6085;49.452;8.502;2023-05-07T15:54:26;4.28;;;3.47;;
12048;SDS011;6085;49.452;8.502;2023-05-07T15:58:28;6.78;;;5.85;;
12048;SDS011;6085;49.452;8.502;2023-05-07T16:02:31;5.43;;;3.80;;
12048;SDS011;6085;49.452;8.502;2023-05-07T16:06:33;6.18;;;3.08;;
12048;SDS011;6085;49.452;8.502;2023-05-07T16:10:35;4.22;;;3.42;;
12048;SDS011;6085;49.452;8.502;2023-05-07T16:14:37;4.05;;;2.90;;
12048;SDS011;6085;49.452;8.502;2023-05-07T16:18:41;7.38;;;5.80;;
12048;SDS011;6085;49.452;8.502;2023-05-07T16:22:43;8.93;;;3.65;;
12048;SDS011;6085;49.452;8.502;2023-05-07T16:26:45;5.13;;;3.58;;
12048;SDS011;6085;49.452;8.502;2023-05-07T16:30:47;4.65;;;3.65;;
12048;SDS011;6085;49.452;8.502;2023-05-07T16:34:50;4.32;;;3.60;;
12048;SDS011;6085;49.452;8.502;2023-05-07T16:38:52;3.13;;;2.83;;
12048;SDS011;6085;49.452;8.502;2023-05-07T16:42:54;3.53;;;3.22;;
12048;SDS011;6085;49.452;8.502;2023-05-07T16:46:56;3.83;;;3.33;;
12048;SDS011;6085;49.452;8.502;2023-05-07T16:51:00;8.55;;;7.65;;
12048;SDS011;6085;49.452;8.502;2023-05-07T16:55:03;5.03;;;4.38;;
12048;SDS011;6085;49.452;8.502;2023-05-07T16:59:09;4.40;;;3.75;;
12048;SDS011;6085;49.452;8.502;2023-05-07T17:03:11;5.32;;;4.38;;
12048;SDS011;6085;49.452;8.502;2023-05-07T17:07:17;4.70;;;3.70;;
12048;SDS011;6085;49.452;8.502;2023-05-07T17:11:19;5.22;;;3.90;;
12048;SDS011;6085;49.452;8.502;2023-05-07T17:15:21;5.43;;;3.95;;
12048;SDS011;6085;49.452;8.502;2023-05-07T17:19:23;6.82;;;4.53;;
12048;SDS011;6085;49.452;8.502;2023-05-07T17:23:26;5.57;;;4.18;;
12048;SDS011;6085;49.452;8.502;2023-05-07T17:27:29;4.78;;;4.35;;
12048;SDS011;6085;49.452;8.502;2023-05-07T17:31:31;5.57;;;4.63;;
12048;SDS011;6085;49.452;8.502;2023-05-07T17:35:33;5.20;;;4.47;;
12048;SDS011;6085;49.452;8.502;2023-05-07T17:39:37;6.75;;;3.97;;
12048;SDS011;6085;49.452;8.502;2023-05-07T17:43:39;8.27;;;5.80;;
12048;SDS011;6085;49.452;8.502;2023-05-07T17:47:41;8.18;;;6.15;;
12048;SDS011;6085;49.452;8.502;2023-05-07T17:51:43;9.32;;;7.28;;
12048;SDS011;6085;49.452;8.502;2023-05-07T17:55:46;8.23;;;6.80;;
12048;SDS011;6085;49.452;8.502;2023-05-07T17:59:49;8.15;;;5.93;;
12048;SDS011;6085;49.452;8.502;2023-05-07T18:03:50;6.18;;;5.57;;
12048;SDS011;6085;49.452;8.502;2023-05-07T18:07:52;6.50;;;5.63;;
12048;SDS011;6085;49.452;8.502;2023-05-07T18:11:56;5.25;;;4.70;;
12048;SDS011;6085;49.452;8.502;2023-05-07T18:15:59;5.45;;;4.95;;
12048;SDS011;6085;49.452;8.502;2023-05-07T18:20:01;6.88;;;4.88;;
12048;SDS011;6085;49.452;8.502;2023-05-07T18:24:03;7.53;;;4.82;;
12048;SDS011;6085;49.452;8.502;2023-05-07T18:28:07;5.38;;;4.43;;
12048;SDS011;6085;49.452;8.502;2023-05-07T18:32:11;6.13;;;4.60;;
12048;SDS011;6085;49.452;8.502;2023-05-07T18:36:13;5.20;;;4.60;;
12048;SDS011;6085;49.452;8.502;2023-05-07T18:40:16;5.30;;;4.90;;
12048;SDS011;6085;49.452;8.502;2023-05-07T18:44:21;5.75;;;5.18;;
12048;SDS011;6085;49.452;8.502;2023-05-07T18:48:23;6.55;;;4.90;;
12048;SDS011;6085;49.452;8.502;2023-05-07T18:52:25;9.27;;;5.85;;
12048;SDS011;6085;49.452;8.502;2023-05-07T18:56:28;7.05;;;5.68;;
12048;SDS011;6085;49.452;8.502;2023-05-07T19:00:31;5.95;;;5.18;;
12048;SDS011;6085;49.452;8.502;2023-05-07T19:04:35;7.78;;;5.95;;
12048;SDS011;6085;49.452;8.502;2023-05-07T19:08:37;7.40;;;6.53;;
12048;SDS011;6085;49.452;8.502;2023-05-07T19:12:39;7.28;;;6.63;;
12048;SDS011;6085;49.452;8.502;2023-05-07T19:16:42;9.48;;;7.47;;
12048;SDS011;6085;49.452;8.502;2023-05-07T19:20:45;8.32;;;7.53;;
12048;SDS011;6085;49.452;8.502;2023-05-07T19:24:47;8.60;;;7.40;;
12048;SDS011;6085;49.452;8.502;2023-05-07T19:28:49;8.25;;;7.35;;
12048;SDS011;6085;49.452;8.502;2023-05-07T19:32:52;8.18;;;7.35;;
12048;SDS011;6085;49.452;8.502;2023-05-07T19:36:54;8.48;;;7.18;;
12048;SDS011;6085;49.452;8.502;2023-05-07T19:40:56;10.40;;;8.70;;
12048;SDS011;6085;49.452;8.502;2023-05-07T19:44:59;11.90;;;9.90;;
12048;SDS011;6085;49.452;8.502;2023-05-07T19:49:04;11.93;;;9.82;;
12048;SDS011;6085;49.452;8.502;2023-05-07T19:53:06;11.73;;;9.38;;
12048;SDS011;6085;49.452;8.502;2023-05-07T19:57:08;11.82;;;9.85;;
12048;SDS011;6085;49.452;8.502;2023-05-07T20:01:10;13.65;;;10.82;;
12048;SDS011;6085;49.452;8.502;2023-05-07T20:05:13;13.85;;;10.63;;
12048;SDS011;6085;49.452;8.502;2023-05-07T20:09:15;14.20;;;11.60;;
12048;SDS011;6085;49.452;8.502;2023-05-07T20:13:17;12.35;;;10.27;;
12048;SDS011;6085;49.452;8.502;2023-05-07T20:17:19;16.45;;;14.07;;
12048;SDS011;6085;49.452;8.502;2023-05-07T20:21:23;15.13;;;13.52;;
12048;SDS011;6085;49.452;8.502;2023-05-07T20:25:25;12.93;;;10.68;;
12048;SDS011;6085;49.452;8.502;2023-05-07T20:29:28;16.98;;;13.98;;
12048;SDS011;6085;49.452;8.502;2023-05-07T20:33:30;15.68;;;13.23;;
12048;SDS011;6085;49.452;8.502;2023-05-07T20:37:33;14.68;;;11.27;;
12048;SDS011;6085;49.452;8.502;2023-05-07T20:41:35;13.38;;;11.98;;
12048;SDS011;6085;49.452;8.502;2023-05-07T20:45:37;13.18;;;11.77;;
12048;SDS011;6085;49.452;8.502;2023-05-07T20:49:39;13.57;;;11.57;;
12048;SDS011;6085;49.452;8.502;2023-05-07T20:53:43;12.10;;;10.80;;
12048;SDS011;6085;49.452;8.502;2023-05-07T20:57:45;12.13;;;10.77;;
12048;SDS011;6085;49.452;8.502;2023-05-07T21:01:47;18.10;;;15.98;;
12048;SDS011;6085;49.452;8.502;2023-05-07T21:05:49;18.35;;;14.95;;
12048;SDS011;6085;49.452;8.502;2023-05-07T21:09:53;20.85;;;17.98;;
12048;SDS011;6085;49.452;8.502;2023-05-07T21:13:55;16.52;;;14.82;;
12048;SDS011;6085;49.452;8.502;2023-05-07T21:17:57;18.05;;;16.13;;
12048;SDS011;6085;49.452;8.502;2023-05-07T21:21:59;17.55;;;15.02;;
12048;SDS011;6085;49.452;8.502;2023-05-07T21:26:03;14.27;;;12.70;;
12048;SDS011;6085;49.452;8.502;2023-05-07T21:30:05;13.43;;;11.05;;
12048;SDS011;6085;49.452;8.502;2023-05-07T21:34:08;14.57;;;12.63;;
12048;SDS011;6085;49.452;8.502;2023-05-07T21:38:10;13.15;;;10.50;;
12048;SDS011;6085;49.452;8.502;2023-05-07T21:42:13;11.40;;;10.20;;
12048;SDS011;6085;49.452;8.502;2023-05-07T21:46:15;12.63;;;10.70;;
12048;SDS011;6085;49.452;8.502;2023-05-07T21:50:18;11.23;;;8.82;;
12048;SDS011;6085;49.452;8.502;2023-05-07T21:54:20;11.18;;;9.02;;
12048;SDS011;6085;49.452;8.502;2023-05-07T21:58:23;11.23;;;9.45;;
12048;SDS011;6085;49.452;8.502;2023-05-07T22:02:25;9.57;;;8.68;;
12048;SDS011;6085;49.452;8.502;2023-05-07T22:06:27;10.85;;;9.18;;
12048;SDS011;6085;49.452;8.502;2023-05-07T22:10:30;12.32;;;9.23;;
12048;SDS011;6085;49.452;8.502;2023-05-07T22:14:33;8.25;;;7.45;;
12048;SDS011;6085;49.452;8.502;2023-05-07T22:18:35;8.75;;;7.88;;
12048;SDS011;6085;49.452;8.502;2023-05-07T22:22:46;9.50;;;8.60;;
12048;SDS011;6085;49.452;8.502;2023-05-07T22:26:49;9.52;;;8.52;;
12048;SDS011;6085;49.452;8.502;2023-05-07T22:30:52;11.60;;;10.27;;
12048;SDS011;6085;49.452;8.502;2023-05-07T22:34:54;10.18;;;9.00;;
12048;SDS011;6085;49.452;8.502;2023-05-07T22:38:56;10.93;;;9.48;;
12048;SDS011;6085;49.452;8.502;2023-05-07T22:42:58;10.18;;;9.18;;
12048;SDS011;6085;49.452;8.502;2023-05-07T22:47:01;11.15;;;8.88;;
12048;SDS011;6085;49.452;8.502;2023-05-07T22:51:03;11.55;;;10.15;;
12048;SDS011;6085;49.452;8.502;2023-05-07T22:55:06;10.10;;;9.10;;
12048;SDS011;6085;49.452;8.502;2023-05-07T22:59:08;13.65;;;12.25;;
12048;SDS011;6085;49.452;8.502;2023-05-07T23:03:12;13.45;;;12.05;;
12048;SDS011;6085;49.452;8.502;2023-05-07T23:07:13;18.48;;;14.02;;
12048;SDS011;6085;49.452;8.502;2023-05-07T23:11:15;17.70;;;14.82;;
12048;SDS011;6085;49.452;8.502;2023-05-07T23:15:18;14.27;;;12.88;;
12048;SDS011;6085;49.452;8.502;2023-05-07T23:19:21;13.75;;;11.55;;
12048;SDS011;6085;49.452;8.502;2023-05-07T23:23:24;16.60;;;14.73;;
12048;SDS011;6085;49.452;8.502;2023-05-07T23:27:29;15.23;;;13.27;;
12048;SDS011;6085;49.452;8.502;2023-05-07T23:31:31;15.43;;;13.27;;
12048;SDS011;6085;49.452;8.502;2023-05-07T23:35:35;13.85;;;11.73;;
12048;SDS011;6085;49.452;8.502;2023-05-07T23:39:36;14.07;;;12.57;;
12048;SDS011;6085;49.452;8.502;2023-05-07T23:43:38;13.43;;;11.95;;
12048;SDS011;6085;49.452;8.502;2023-05-07T23:47:40;14.93;;;12.60;;
12048;SDS011;6085;49.452;8.502;2023-05-07T23:51:43;13.02;;;10.73;;
12048;SDS011;6085;49.452;8.502;2023-05-07T23:55:46;18.60;;;15.55;;
12048;SDS011;6085;49.452;8.502;2023-05-07T23:59:48;15.68;;;13.57;;
